createdAt,value
2023-01-12T00:01:55.102Z,97428.69
2023-01-12T00:04:23.301Z,97420.66
2023-01-12T00:06:51.445Z,97425.25
2023-01-12T00:09:19.867Z,97428.84
2023-01-12T00:11:47.909Z,97436.91
2023-01-12T00:14:16.070Z,97430.66
2023-01-12T00:16:44.181Z,97438.81
2023-01-12T00:19:15.604Z,97441.50
2023-01-12T00:21:56.337Z,97442.47
2023-01-12T00:24:25.700Z,97441.59
2023-01-12T00:26:53.830Z,97438.03
2023-01-12T00:29:22.065Z,97436.31
2023-01-12T00:31:50.235Z,97437.25
2023-01-12T00:34:19.771Z,97439.06
2023-01-12T00:36:47.924Z,97442.72
2023-01-12T00:39:16.085Z,97443.66
2023-01-12T00:42:01.602Z,97446.34
2023-01-12T00:44:46.923Z,97458.91
2023-01-12T00:47:15.527Z,97461.66
2023-01-12T00:49:45.254Z,97460.81
2023-01-12T00:52:24.918Z,97467.97
2023-01-12T00:54:57.896Z,97476.03
2023-01-12T00:57:26.021Z,97458.19
2023-01-12T00:59:55.517Z,97452.94
2023-01-12T01:02:23.966Z,97466.34
2023-01-12T01:04:53.468Z,97460.09
2023-01-12T01:07:22.048Z,97451.22
2023-01-12T01:09:50.244Z,97464.63
2023-01-12T01:12:18.373Z,97471.91
2023-01-12T01:14:47.403Z,97470.06
2023-01-12T01:17:15.576Z,97468.34
2023-01-12T01:19:44.058Z,97475.50
2023-01-12T01:22:13.583Z,97465.75
2023-01-12T01:24:42.195Z,97466.69
2023-01-12T01:27:10.332Z,97484.53
2023-01-12T01:29:38.356Z,97485.47
2023-01-12T01:32:06.656Z,97474.72
2023-01-12T01:34:34.991Z,97472.16
2023-01-12T01:37:03.135Z,97472.25
2023-01-12T01:39:32.556Z,97476.63
2023-01-12T01:42:01.219Z,97472.25
2023-01-12T01:44:51.359Z,97482.78
2023-01-12T01:47:24.893Z,97484.59
2023-01-12T01:49:53.917Z,97482.88
2023-01-12T01:52:23.843Z,97478.44
2023-01-12T01:54:54.761Z,97472.41
2023-01-12T01:57:23.118Z,97483.13
2023-01-12T01:59:52.824Z,97480.44
2023-01-12T02:02:21.070Z,97476.91
2023-01-12T02:04:49.123Z,97490.28
2023-01-12T02:07:17.265Z,97484.09
2023-01-12T02:09:45.291Z,97477.00
2023-01-12T02:12:32.344Z,97486.84
2023-01-12T02:15:17.959Z,97475.28
2023-01-12T02:17:53.195Z,97486.94
2023-01-12T02:20:49.440Z,97489.63
2023-01-12T02:23:56.094Z,97497.66
2023-01-12T02:26:36.923Z,97504.81
2023-01-12T02:29:36.644Z,97503.13
2023-01-12T02:32:07.731Z,97502.25
2023-01-12T02:34:38.297Z,97496.88
2023-01-12T02:37:10.578Z,97496.88
2023-01-12T02:39:43.145Z,97500.44
2023-01-12T02:42:30.932Z,97508.56
2023-01-12T02:45:01.770Z,97500.59
2023-01-12T02:47:35.264Z,97510.47
2023-01-12T02:50:04.113Z,97497.06
2023-01-12T02:52:32.676Z,97505.09
2023-01-12T02:55:01.070Z,97497.13
2023-01-12T02:57:29.063Z,97505.16
2023-01-12T02:59:57.256Z,97502.50
2023-01-12T03:02:25.582Z,97493.63
2023-01-12T03:04:55.271Z,97494.56
2023-01-12T03:07:31.170Z,97492.84
2023-01-12T03:10:00.833Z,97485.63
2023-01-12T03:12:31.763Z,97482.13
2023-01-12T03:15:00.499Z,97477.69
2023-01-12T03:17:31.130Z,97483.06
2023-01-12T03:20:02.590Z,97489.28
2023-01-12T03:22:30.707Z,97473.31
2023-01-12T03:25:02.272Z,97483.16
2023-01-12T03:27:33.258Z,97484.03
2023-01-12T03:30:02.164Z,97491.09
2023-01-12T03:32:30.248Z,97487.59
2023-01-12T03:34:58.407Z,97491.25
2023-01-12T03:37:29.793Z,97480.53
2023-01-12T03:39:59.836Z,97496.59
2023-01-12T03:42:29.314Z,97489.41
2023-01-12T03:45:00.899Z,97496.59
2023-01-12T03:47:30.501Z,97499.28
2023-01-12T03:49:59.874Z,97505.59
2023-01-12T03:52:29.445Z,97494.00
2023-01-12T03:54:58.277Z,97506.47
2023-01-12T03:57:27.254Z,97504.81
2023-01-12T03:59:55.352Z,97507.47
2023-01-12T04:02:23.439Z,97513.72
2023-01-12T04:04:51.681Z,97520.88
2023-01-12T04:07:19.776Z,97508.44
2023-01-12T04:09:49.308Z,97504.91
2023-01-12T04:12:17.460Z,97513.81
2023-01-12T04:14:48.161Z,97515.63
2023-01-12T04:17:19.263Z,97522.78
2023-01-12T04:19:47.359Z,97538.84
2023-01-12T04:22:33.584Z,97529.09
2023-01-12T04:25:03.084Z,97526.44
2023-01-12T04:27:31.227Z,97533.59
2023-01-12T04:29:59.309Z,97539.03
2023-01-12T04:32:27.536Z,97539.03
2023-01-12T04:34:55.650Z,97547.91
2023-01-12T04:37:23.748Z,97552.44
2023-01-12T04:39:51.859Z,97552.44
2023-01-12T04:42:38.696Z,97560.53
2023-01-12T04:45:07.855Z,97557.84
2023-01-12T04:47:35.958Z,97562.38
2023-01-12T04:50:04.344Z,97551.66
2023-01-12T04:52:32.425Z,97562.38
2023-01-12T04:55:00.501Z,97568.56
2023-01-12T04:57:30.040Z,97568.56
2023-01-12T04:59:58.178Z,97555.25
2023-01-12T05:02:26.361Z,97557.00
2023-01-12T05:04:54.414Z,97555.25
2023-01-12T05:07:22.539Z,97551.72
2023-01-12T05:10:07.951Z,97551.72
2023-01-12T05:12:37.449Z,97550.78
2023-01-12T05:15:06.471Z,97549.03
2023-01-12T05:17:34.523Z,97558.81
2023-01-12T05:20:02.624Z,97551.72
2023-01-12T05:22:32.226Z,97558.03
2023-01-12T05:25:00.355Z,97556.22
2023-01-12T05:27:28.443Z,97558.91
2023-01-12T05:29:59.729Z,97550.88
2023-01-12T05:32:27.839Z,97548.19
2023-01-12T05:34:55.902Z,97555.25
2023-01-12T05:37:24.013Z,97567.00
2023-01-12T05:39:52.067Z,97576.69
2023-01-12T05:42:37.711Z,97579.38
2023-01-12T05:45:08.702Z,97582.94
2023-01-12T05:47:36.862Z,97579.38
2023-01-12T05:50:05.508Z,97584.63
2023-01-12T05:52:33.586Z,97578.44
2023-01-12T05:55:01.741Z,97577.47
2023-01-12T05:57:30.490Z,97584.59
2023-01-12T05:59:58.578Z,97586.38
2023-01-12T06:02:28.798Z,97588.19
2023-01-12T06:04:57.016Z,97591.75
2023-01-12T06:07:25.047Z,97597.09
2023-01-12T06:09:53.187Z,97600.66
2023-01-12T06:12:38.364Z,97596.13
2023-01-12T06:15:07.494Z,97600.66
2023-01-12T06:17:36.985Z,97597.97
2023-01-12T06:20:06.026Z,97614.84
2023-01-12T06:22:34.134Z,97613.88
2023-01-12T06:25:02.336Z,97606.78
2023-01-12T06:27:35.401Z,97603.16
2023-01-12T06:30:03.570Z,97609.47
2023-01-12T06:32:33.459Z,97619.13
2023-01-12T06:35:14.069Z,97623.38
2023-01-12T06:37:46.356Z,97620.56
2023-01-12T06:40:15.000Z,97622.28
2023-01-12T06:42:43.144Z,97624.81
2023-01-12T06:45:12.420Z,97623.00
2023-01-12T06:47:46.962Z,97613.91
2023-01-12T06:50:16.709Z,97614.78
2023-01-12T06:52:44.795Z,97615.66
2023-01-12T06:55:12.933Z,97625.41
2023-01-12T06:57:41.022Z,97624.47
2023-01-12T07:00:13.464Z,97624.47
2023-01-12T07:02:41.561Z,97626.97
2023-01-12T07:07:40.475Z,97640.13
2023-01-12T07:10:09.605Z,97653.38
2023-01-12T07:12:37.699Z,97655.00
2023-01-12T07:15:06.317Z,97656.75
2023-01-12T07:17:34.395Z,97650.41
2023-01-12T07:20:02.567Z,97658.41
2023-01-12T07:22:30.698Z,97653.81
2023-01-12T07:25:00.198Z,97643.09
2023-01-12T07:27:28.344Z,97652.75
2023-01-12T07:29:56.449Z,97667.81
2023-01-12T07:32:27.028Z,97663.34
2023-01-12T07:34:55.210Z,97665.03
2023-01-12T07:37:23.406Z,97662.31
2023-01-12T07:39:51.479Z,97667.66
2023-01-12T07:42:27.113Z,97665.75
2023-01-12T07:44:55.209Z,97672.84
2023-01-12T07:47:23.367Z,97673.63
2023-01-12T07:49:51.534Z,97668.16
2023-01-12T07:52:19.611Z,97665.41
2023-01-12T07:54:47.736Z,97672.41
2023-01-12T07:57:15.848Z,97664.19
2023-01-12T07:59:45.288Z,97667.75
2023-01-12T08:02:16.532Z,97662.31
2023-01-12T08:04:44.827Z,97664.13
2023-01-12T08:07:12.978Z,97653.28
2023-01-12T08:09:41.121Z,97649.78
2023-01-12T08:12:09.242Z,97661.34
2023-01-12T08:14:38.505Z,97648.81
2023-01-12T08:17:09.606Z,97680.88
2023-01-12T08:19:39.388Z,97667.47
2023-01-12T08:22:09.449Z,97663.88
2023-01-12T08:24:38.503Z,97668.19
2023-01-12T08:27:06.638Z,97671.72
2023-01-12T08:29:36.273Z,97676.16
2023-01-12T08:32:05.479Z,97677.03
2023-01-12T08:34:35.117Z,97680.47
2023-01-12T08:37:05.184Z,97685.84
2023-01-12T08:39:35.247Z,97680.38
2023-01-12T08:42:03.485Z,97681.25
2023-01-12T08:44:34.173Z,97679.41
2023-01-12T08:47:02.332Z,97688.34
2023-01-12T08:49:30.919Z,97692.78
2023-01-12T08:52:00.399Z,97693.59
2023-01-12T08:54:28.693Z,97687.31
2023-01-12T08:56:56.744Z,97681.94
2023-01-12T08:59:25.607Z,97681.84
2023-01-12T09:01:53.801Z,97680.03
2023-01-12T09:04:21.969Z,97680.91
2023-01-12T09:06:50.024Z,97679.94
2023-01-12T09:09:20.206Z,97674.56
2023-01-12T09:11:48.992Z,97679.00
2023-01-12T09:14:17.347Z,97675.44
2023-01-12T09:16:45.556Z,97674.41
2023-01-12T09:19:13.963Z,97676.00
2023-01-12T09:21:42.174Z,97677.56
2023-01-12T09:24:10.567Z,97672.19
2023-01-12T09:26:40.900Z,97663.94
2023-01-12T09:29:09.584Z,97662.16
2023-01-12T09:31:38.191Z,97660.31
2023-01-12T09:34:06.258Z,97659.38
2023-01-12T09:36:35.176Z,97654.00
2023-01-12T09:39:04.348Z,97652.19
2023-01-12T09:41:50.881Z,97649.50
2023-01-12T09:44:54.545Z,97648.44
2023-01-12T09:47:27.168Z,97643.94
2023-01-12T09:50:04.622Z,97646.53
2023-01-12T09:52:38.390Z,97647.41
2023-01-12T09:55:07.852Z,97643.84
2023-01-12T09:57:50.167Z,97642.03
2023-01-12T10:00:20.157Z,97639.34
2023-01-12T10:02:49.729Z,97640.22
2023-01-12T10:05:31.554Z,97631.22
2023-01-12T10:08:07.183Z,97627.69
2023-01-12T10:10:35.260Z,97632.94
2023-01-12T10:13:05.921Z,97635.53
2023-01-12T10:15:41.591Z,97643.50
2023-01-12T10:18:11.619Z,97639.88
2023-01-12T10:20:40.527Z,97642.56
2023-01-12T10:23:15.060Z,97631.72
2023-01-12T10:25:45.117Z,97630.84
2023-01-12T10:28:18.832Z,97627.22
2023-01-12T10:30:48.359Z,97623.66
2023-01-12T10:33:17.916Z,97619.06
2023-01-12T10:35:57.062Z,97625.31
2023-01-12T10:38:27.708Z,97617.16
2023-01-12T10:41:07.440Z,97615.25
2023-01-12T10:43:35.680Z,97617.84
2023-01-12T10:46:07.182Z,97604.41
2023-01-12T10:48:35.335Z,97603.47
2023-01-12T10:51:04.245Z,97604.25
2023-01-12T10:53:37.427Z,97598.88
2023-01-12T10:56:18.127Z,97600.53
2023-01-12T10:58:46.847Z,97596.09
2023-01-12T11:01:16.631Z,97598.69
2023-01-12T11:03:44.812Z,97591.41
2023-01-12T11:06:33.066Z,97590.47
2023-01-12T11:09:07.585Z,97590.38
2023-01-12T11:11:35.683Z,97572.44
2023-01-12T11:14:04.547Z,97570.63
2023-01-12T11:16:34.644Z,97573.22
2023-01-12T11:19:21.328Z,97571.31
2023-01-12T11:21:51.595Z,97566.81
2023-01-12T11:24:30.959Z,97562.28
2023-01-12T11:27:00.871Z,97560.56
2023-01-12T11:29:36.243Z,97546.38
2023-01-12T11:32:08.456Z,97546.38
2023-01-12T11:34:39.131Z,97547.31
2023-01-12T11:37:09.827Z,97540.13
2023-01-12T11:39:38.008Z,97538.41
2023-01-12T11:42:23.671Z,97545.59
2023-01-12T11:44:53.103Z,97541.94
2023-01-12T11:47:25.110Z,97533.03
2023-01-12T11:49:55.046Z,97525.00
2023-01-12T11:52:23.100Z,97529.50
2023-01-12T11:54:51.274Z,97538.41
2023-01-12T11:57:42.560Z,97536.66
2023-01-12T12:00:19.573Z,97541.16
2023-01-12T12:02:53.383Z,97533.13
2023-01-12T12:05:26.883Z,97533.97
2023-01-12T12:08:01.188Z,97533.13
2023-01-12T12:10:31.479Z,97528.63
2023-01-12T12:13:14.381Z,97527.75
2023-01-12T12:15:46.817Z,97524.22
2023-01-12T12:18:20.374Z,97521.53
2023-01-12T12:20:52.534Z,97509.94
2023-01-12T12:23:25.184Z,97501.88
2023-01-12T12:25:57.610Z,97501.00
2023-01-12T12:28:52.648Z,97503.69
2023-01-12T12:31:32.541Z,97493.81
2023-01-12T12:34:10.551Z,97501.97
2023-01-12T12:36:41.935Z,97492.06
2023-01-12T12:39:37.517Z,97494.75
2023-01-12T12:42:29.976Z,97491.22
2023-01-12T12:45:18.651Z,97486.69
2023-01-12T12:47:59.124Z,97485.88
2023-01-12T12:50:30.542Z,97477.81
2023-01-12T12:53:22.103Z,97482.31
2023-01-12T12:55:51.009Z,97475.97
2023-01-12T12:58:30.330Z,97473.38
2023-01-12T13:01:16.374Z,97465.34
2023-01-12T13:03:48.049Z,97460.06
2023-01-12T13:06:20.348Z,97465.34
2023-01-12T13:08:49.476Z,97463.63
2023-01-12T13:11:17.577Z,97466.31
2023-01-12T13:13:59.129Z,97469.84
2023-01-12T13:16:48.279Z,97480.50
2023-01-12T13:19:31.771Z,97474.25
2023-01-12T13:22:03.714Z,97477.03
2023-01-12T13:24:42.249Z,97477.03
2023-01-12T13:27:56.655Z,97478.84
2023-01-12T13:30:40.502Z,97478.00
2023-01-12T13:33:33.488Z,97475.31
2023-01-12T13:36:10.170Z,97468.28
2023-01-12T13:38:50.522Z,97469.16
2023-01-12T13:41:41.450Z,97470.03
2023-01-12T13:44:11.405Z,97470.03
2023-01-12T13:46:42.681Z,97466.47
2023-01-12T13:49:28.905Z,97463.78
2023-01-12T13:52:08.800Z,97470.03
2023-01-12T13:54:48.538Z,97468.28
2023-01-12T13:57:19.875Z,97462.94
2023-01-12T13:59:58.106Z,97465.59
2023-01-12T14:02:26.293Z,97458.63
2023-01-12T14:05:21.485Z,97454.97
2023-01-12T14:07:54.285Z,97457.66
2023-01-12T14:10:33.316Z,97454.09
2023-01-12T14:13:23.704Z,97450.47
2023-01-12T14:16:09.156Z,97452.28
2023-01-12T14:18:44.219Z,97458.63
2023-01-12T14:21:22.213Z,97452.41
2023-01-12T14:23:50.386Z,97443.47
2023-01-12T14:26:23.791Z,97441.66
2023-01-12T14:28:52.614Z,97437.22
2023-01-12T14:31:26.919Z,97435.41
2023-01-12T14:33:56.135Z,97438.09
2023-01-12T14:36:26.052Z,97433.59
2023-01-12T14:38:54.509Z,97430.06
2023-01-12T14:41:43.165Z,97430.91
2023-01-12T14:44:38.560Z,97435.41
2023-01-12T14:47:07.732Z,97431.88
2023-01-12T14:49:36.489Z,97438.09
2023-01-12T14:52:05.330Z,97443.75
2023-01-12T14:54:34.146Z,97440.28
2023-01-12T14:57:04.657Z,97436.66
2023-01-12T14:59:33.919Z,97435.81
2023-01-12T15:02:28.751Z,97433.00
2023-01-12T15:04:58.967Z,97433.88
2023-01-12T15:07:30.577Z,97433.00
2023-01-12T15:09:59.482Z,97433.88
2023-01-12T15:12:53.113Z,97431.19
2023-01-12T15:15:22.896Z,97426.81
2023-01-12T15:18:08.892Z,97432.19
2023-01-12T15:20:55.212Z,97422.28
2023-01-12T15:23:46.872Z,97426.81
2023-01-12T15:26:15.027Z,97420.56
2023-01-12T15:28:44.854Z,97420.56
2023-01-12T15:31:18.929Z,97424.97
2023-01-12T15:33:47.134Z,97419.69
2023-01-12T15:36:15.251Z,97420.56
2023-01-12T15:38:43.783Z,97420.66
2023-01-12T15:41:15.752Z,97425.16
2023-01-12T15:43:46.098Z,97421.50
2023-01-12T15:46:18.539Z,97416.25
2023-01-12T15:48:47.948Z,97415.38
2023-01-12T15:51:16.313Z,97423.44
2023-01-12T15:53:44.373Z,97425.16
2023-01-12T15:56:15.360Z,97426.09
2023-01-12T15:58:43.544Z,97427.84
2023-01-12T16:01:16.381Z,97423.34
2023-01-12T16:04:09.492Z,97422.47
2023-01-12T16:06:33.991Z,97424.19
2023-01-12T16:09:02.223Z,97413.47
2023-01-12T16:11:30.318Z,97417.88
2023-01-12T16:13:58.666Z,97417.88
2023-01-12T16:16:29.226Z,97413.47
2023-01-12T16:18:58.656Z,97417.00
2023-01-12T16:21:27.823Z,97426.81
2023-01-12T16:23:57.916Z,97417.88
2023-01-12T16:26:26.242Z,97414.31
2023-01-12T16:28:54.410Z,97414.31
2023-01-12T16:31:22.625Z,97412.53
2023-01-12T16:33:52.230Z,97412.53
2023-01-12T16:36:20.353Z,97408.97
2023-01-12T16:38:48.502Z,97417.00
2023-01-12T16:41:18.934Z,97421.44
2023-01-12T16:43:47.226Z,97409.84
2023-01-12T16:46:15.430Z,97419.69
2023-01-12T16:48:43.695Z,97420.56
2023-01-12T16:51:14.232Z,97426.81
2023-01-12T16:53:42.571Z,97428.63
2023-01-12T16:56:11.557Z,97429.50
2023-01-12T16:58:41.902Z,97434.75
2023-01-12T17:01:12.342Z,97428.50
2023-01-12T17:03:41.604Z,97430.25
2023-01-12T17:06:10.899Z,97431.09
2023-01-12T17:08:40.858Z,97444.50
2023-01-12T17:11:12.276Z,97440.03
2023-01-12T17:13:40.465Z,97443.56
2023-01-12T17:16:08.751Z,97444.44
2023-01-12T17:18:37.532Z,97453.34
2023-01-12T17:21:07.438Z,97449.72
2023-01-12T17:23:35.672Z,97462.16
2023-01-12T17:26:05.546Z,97450.47
2023-01-12T17:28:35.045Z,97450.38
2023-01-12T17:31:08.134Z,97461.13
2023-01-12T17:33:36.635Z,97464.66
2023-01-12T17:36:05.503Z,97460.06
2023-01-12T17:38:33.920Z,97459.97
2023-01-12T17:41:02.068Z,97459.88
2023-01-12T17:43:30.598Z,97458.03
2023-01-12T17:46:00.267Z,97451.75
2023-01-12T17:48:28.676Z,97450.75
2023-01-12T17:50:56.745Z,97449.81
2023-01-12T17:53:24.885Z,97451.63
2023-01-12T17:55:53.417Z,97450.75
2023-01-12T17:58:21.587Z,97457.88
2023-01-12T18:00:51.239Z,97453.34
2023-01-12T18:03:19.600Z,97452.50
2023-01-12T18:05:57.737Z,97451.53
2023-01-12T18:08:30.840Z,97444.34
2023-01-12T18:10:58.930Z,97442.53
2023-01-12T18:13:27.078Z,97443.31
2023-01-12T18:15:56.570Z,97442.44
2023-01-12T18:18:25.931Z,97443.38
2023-01-12T18:20:54.048Z,97439.75
2023-01-12T18:23:22.457Z,97438.88
2023-01-12T18:25:50.628Z,97429.94
2023-01-12T18:28:18.696Z,97434.38
2023-01-12T18:30:46.894Z,97426.31
2023-01-12T18:33:16.422Z,97435.25
2023-01-12T18:35:44.518Z,97422.66
2023-01-12T18:38:12.678Z,97421.81
2023-01-12T18:40:41.916Z,97425.34
2023-01-12T18:43:09.075Z,97428.91
2023-01-12T18:45:37.183Z,97436.00
2023-01-12T18:48:24.306Z,97425.34
2023-01-12T18:51:12.600Z,97426.09
2023-01-12T18:53:41.918Z,97426.09
2023-01-12T18:56:11.869Z,97411.75
2023-01-12T18:58:42.064Z,97417.13
2023-01-12T19:01:10.486Z,97413.44
2023-01-12T19:03:38.614Z,97410.78
2023-01-12T19:06:22.541Z,97414.31
2023-01-12T19:09:08.216Z,97413.44
2023-01-12T19:11:36.363Z,97413.44
2023-01-12T19:14:21.763Z,97420.66
2023-01-12T19:17:07.340Z,97420.56
2023-01-12T19:19:35.563Z,97426.81
2023-01-12T19:22:22.538Z,97420.56
2023-01-12T19:25:07.810Z,97419.81
2023-01-12T19:27:53.075Z,97414.31
2023-01-12T19:30:21.479Z,97408.09
2023-01-12T19:32:49.758Z,97406.38
2023-01-12T19:35:18.023Z,97407.25
2023-01-12T19:37:49.032Z,97415.31
2023-01-12T19:40:23.428Z,97399.19
2023-01-12T19:43:08.772Z,97409.94
2023-01-12T19:45:38.460Z,97407.25
2023-01-12T19:48:07.452Z,97409.94
2023-01-12T19:50:35.824Z,97401.78
2023-01-12T19:53:05.530Z,97399.09
2023-01-12T19:55:34.015Z,97401.66
2023-01-12T19:58:02.165Z,97399.09
2023-01-12T20:00:30.470Z,97391.03
2023-01-12T20:02:58.703Z,97391.91
2023-01-12T20:05:26.768Z,97396.41
2023-01-12T20:07:55.177Z,97394.59
2023-01-12T20:10:24.617Z,97390.94
2023-01-12T20:12:52.815Z,97390.06
2023-01-12T20:15:21.748Z,97386.53
2023-01-12T20:17:50.119Z,97371.38
2023-01-12T20:20:18.583Z,97372.22
2023-01-12T20:22:46.918Z,97374.91
2023-01-12T20:25:15.113Z,97378.47
2023-01-12T20:27:45.825Z,97359.69
2023-01-12T20:30:18.182Z,97376.63
2023-01-12T20:32:48.612Z,97362.38
2023-01-12T20:35:18.072Z,97377.59
2023-01-12T20:37:46.195Z,97373.09
2023-01-12T20:40:14.555Z,97368.56
2023-01-12T20:42:43.995Z,97368.56
2023-01-12T20:45:13.586Z,97361.50
2023-01-12T20:47:42.156Z,97364.19
2023-01-12T20:50:13.653Z,97377.59
2023-01-12T20:52:41.927Z,97364.06
2023-01-12T20:55:10.065Z,97363.19
2023-01-12T20:57:38.776Z,97357.00
2023-01-12T21:00:09.749Z,97363.19
2023-01-12T21:02:38.028Z,97368.56
2023-01-12T21:05:06.584Z,97355.16
2023-01-12T21:07:34.768Z,97357.75
2023-01-12T21:10:02.888Z,97357.75
2023-01-12T21:12:31.059Z,97354.19
2023-01-12T21:14:59.118Z,97350.53
2023-01-12T21:17:28.664Z,97355.91
2023-01-12T21:19:56.783Z,97355.91
2023-01-12T21:22:24.985Z,97351.41
2023-01-12T21:24:53.040Z,97358.53
2023-01-12T21:27:21.213Z,97347.84
2023-01-12T21:29:49.347Z,97347.84
2023-01-12T21:32:17.523Z,97350.66
2023-01-12T21:34:49.001Z,97344.34
2023-01-12T21:37:17.146Z,97347.84
2023-01-12T21:39:45.200Z,97341.53
2023-01-12T21:42:30.774Z,97337.03
2023-01-12T21:44:58.982Z,97331.75
2023-01-12T21:47:27.103Z,97345.16
2023-01-12T21:49:57.259Z,97348.84
2023-01-12T21:52:30.691Z,97351.53
2023-01-12T21:54:58.842Z,97347.09
2023-01-12T21:57:27.071Z,97345.38
2023-01-12T21:59:55.163Z,97343.66
2023-01-12T22:02:23.352Z,97347.31
2023-01-12T22:04:51.407Z,97354.38
2023-01-12T22:07:20.905Z,97363.41
2023-01-12T22:09:49.109Z,97364.28
2023-01-12T22:12:17.233Z,97357.19
2023-01-12T22:14:45.359Z,97364.28
2023-01-12T22:17:13.480Z,97362.53
2023-01-12T22:19:41.622Z,97363.41
2023-01-12T22:22:09.709Z,97348.25
2023-01-12T22:24:39.295Z,97350.00
2023-01-12T22:27:07.438Z,97351.81
2023-01-12T22:29:35.626Z,97354.50
2023-01-12T22:32:03.834Z,97347.31
2023-01-12T22:34:32.019Z,97344.72
2023-01-12T22:37:00.173Z,97341.06
2023-01-12T22:39:28.270Z,97339.34
2023-01-12T22:41:57.871Z,97338.50
2023-01-12T22:44:26.105Z,97332.25
2023-01-12T22:46:54.253Z,97330.53
2023-01-12T22:49:22.468Z,97334.06
2023-01-12T22:51:50.549Z,97328.69
2023-01-12T22:54:19.186Z,97330.53
2023-01-12T22:56:47.257Z,97332.34
2023-01-12T22:59:16.847Z,97327.94
2023-01-12T23:01:44.946Z,97325.25
2023-01-12T23:04:13.441Z,97319.97
2023-01-12T23:06:41.585Z,97321.72
2023-01-12T23:09:11.683Z,97324.41
2023-01-12T23:11:39.807Z,97321.72
2023-01-12T23:14:08.185Z,97323.53
2023-01-12T23:16:37.700Z,97320.84
2023-01-12T23:19:05.803Z,97319.13
2023-01-12T23:21:33.925Z,97313.75
2023-01-12T23:24:02.129Z,97312.03
2023-01-12T23:26:31.990Z,97304.09
2023-01-12T23:29:01.117Z,97295.16
2023-01-12T23:31:30.448Z,97286.13
2023-01-12T23:34:00.038Z,97287.97
2023-01-12T23:36:29.541Z,97291.50
2023-01-12T23:38:59.764Z,97282.63
2023-01-12T23:41:29.235Z,97287.13
2023-01-12T23:43:58.682Z,97296.88
2023-01-12T23:46:27.164Z,97289.81
2023-01-12T23:48:56.082Z,97296.13
2023-01-12T23:51:26.397Z,97293.44
2023-01-12T23:53:54.513Z,97293.44
2023-01-12T23:56:23.621Z,97303.31
2023-01-12T23:58:51.749Z,97296.22
